Time;durP1;ratioP1;P1;durP2;ratioP2;P2;SDS_P1;SDS_P2;PMS_P1;PMS_P2;Temp;Humidity;BMP_temperature;BMP_pressure;BME280_temperature;BME280_humidity;BME280_pressure;Samples;Min_cycle;Max_cycle;Signal;HPM_P1;HPM_P2
2023/04/17 00:01:36;;;;;;;22.77;16.40;;;11.10;81.90;;;;;;5060716;28;20473;-62
2023/04/17 00:04:12;;;;;;;23.70;15.77;;;11.10;81.90;;;;;;5075842;28;20488;-63
2023/04/17 00:06:52;;;;;;;23.07;15.30;;;11.10;81.90;;;;;;5074043;28;20804;-61
2023/04/17 00:09:27;;;;;;;22.97;16.43;;;11.10;81.90;;;;;;5076083;28;20980;-63
2023/04/17 00:12:09;;;;;;;18.73;13.60;;;11.10;81.90;;;;;;5077818;28;20504;-61
2023/04/17 00:14:40;;;;;;;26.30;15.97;;;11.10;81.90;;;;;;5077324;28;20582;-61
2023/04/17 00:17:19;;;;;;;23.57;16.07;;;11.00;81.80;;;;;;5076355;28;20525;-63
2023/04/17 00:19:51;;;;;;;20.80;14.70;;;11.00;81.90;;;;;;5078370;28;20461;-61
2023/04/17 00:22:28;;;;;;;24.80;16.37;;;11.00;82.00;;;;;;5080045;28;20485;-61
2023/04/17 00:25:11;;;;;;;21.10;15.60;;;11.00;82.00;;;;;;5074983;28;20565;-61
2023/04/17 00:27:51;;;;;;;21.90;15.60;;;11.00;82.00;;;;;;5077203;28;20455;-61
2023/04/17 00:30:29;;;;;;;21.50;15.30;;;11.00;82.00;;;;;;5076675;28;20989;-61
2023/04/17 00:33:03;;;;;;;22.20;14.50;;;11.00;82.00;;;;;;5075184;28;20590;-61
2023/04/17 00:35:37;;;;;;;22.10;15.10;;;11.00;82.10;;;;;;5073508;28;20684;-61
2023/04/17 00:38:15;;;;;;;23.30;14.20;;;11.00;82.10;;;;;;5076095;28;21278;-63
2023/04/17 00:40:50;;;;;;;20.33;15.00;;;11.00;82.10;;;;;;5067778;28;20841;-61
2023/04/17 00:43:23;;;;;;;21.83;15.40;;;11.00;82.10;;;;;;5081224;28;20493;-62
2023/04/17 00:46:01;;;;;;;22.40;15.90;;;11.00;82.10;;;;;;5086774;28;20530;-61
2023/04/17 00:48:35;;;;;;;23.40;15.43;;;11.00;82.10;;;;;;5080746;28;20507;-61
2023/04/17 00:51:09;;;;;;;23.07;15.27;;;11.00;82.10;;;;;;5080659;28;20458;-61
2023/04/17 00:53:56;;;;;;;22.97;14.90;;;10.90;82.10;;;;;;5086086;28;20462;-61
2023/04/17 00:56:28;;;;;;;22.73;15.53;;;10.90;82.10;;;;;;5067591;28;20467;-63
2023/04/17 00:59:07;;;;;;;21.83;14.97;;;10.90;82.10;;;;;;5085277;28;20457;-63
2023/04/17 01:01:38;;;;;;;23.27;16.77;;;10.90;82.10;;;;;;5080002;28;20581;-61
2023/04/17 01:04:09;;;;;;;24.07;15.60;;;10.90;82.10;;;;;;5079990;28;20451;-63
2023/04/17 01:06:46;;;;;;;21.57;15.17;;;10.90;82.10;;;;;;5082688;28;20463;-63
2023/04/17 01:09:20;;;;;;;23.23;16.10;;;10.90;82.20;;;;;;5071864;28;20531;-63
2023/04/17 01:11:54;;;;;;;23.40;15.83;;;10.90;82.20;;;;;;5087236;28;20462;-63
2023/04/17 01:14:26;;;;;;;19.70;14.67;;;10.90;82.10;;;;;;5069020;28;20471;-63
2023/04/17 01:16:59;;;;;;;23.67;15.37;;;10.90;82.10;;;;;;5085791;28;20470;-63
2023/04/17 01:19:39;;;;;;;24.20;16.00;;;10.90;82.10;;;;;;5067264;28;20545;-63
2023/04/17 01:22:10;;;;;;;20.23;14.80;;;10.90;82.10;;;;;;5065459;28;20460;-64
2023/04/17 01:24:47;;;;;;;19.70;14.30;;;10.80;82.20;;;;;;5086918;28;20469;-63
2023/04/17 01:27:16;;;;;;;22.80;15.83;;;10.80;82.10;;;;;;5083292;28;20456;-64
2023/04/17 01:29:54;;;;;;;26.30;16.93;;;10.80;82.20;;;;;;5074453;28;20483;-63
2023/04/17 01:32:29;;;;;;;23.37;16.27;;;10.80;82.20;;;;;;5085915;28;20488;-63
2023/04/17 01:35:04;;;;;;;25.60;16.73;;;10.80;82.20;;;;;;5078581;28;20485;-63
2023/04/17 01:37:33;;;;;;;22.03;14.90;;;10.80;82.20;;;;;;5075212;28;20456;-61
2023/04/17 01:40:13;;;;;;;22.70;14.80;;;10.80;82.30;;;;;;5067084;28;20466;-63
2023/04/17 01:42:45;;;;;;;21.17;15.33;;;10.80;82.30;;;;;;5067296;28;20828;-63
2023/04/17 01:45:26;;;;;;;23.30;15.57;;;10.90;82.30;;;;;;5085287;28;20473;-63
2023/04/17 01:47:59;;;;;;;23.20;15.20;;;10.80;82.20;;;;;;5066608;28;20460;-62
2023/04/17 01:50:32;;;;;;;26.93;17.07;;;10.80;82.20;;;;;;5081970;28;20488;-62
2023/04/17 01:53:13;;;;;;;24.37;17.13;;;10.90;82.20;;;;;;5065189;28;20822;-63
2023/04/17 01:55:53;;;;;;;24.47;15.30;;;10.90;82.20;;;;;;5085212;28;20762;-64
2023/04/17 01:58:25;;;;;;;24.67;15.20;;;10.90;82.30;;;;;;5052860;28;20454;-63
2023/04/17 02:01:06;;;;;;;23.33;16.63;;;10.90;82.30;;;;;;5063602;28;20520;-63
2023/04/17 02:03:43;;;;;;;25.40;16.20;;;10.90;82.30;;;;;;5069734;28;20568;-62
2023/04/17 02:06:17;;;;;;;25.33;16.60;;;10.90;82.30;;;;;;5080709;28;20463;-62
2023/04/17 02:08:50;;;;;;;23.50;16.80;;;10.90;82.30;;;;;;5067741;28;20566;-63
2023/04/17 02:11:35;;;;;;;25.73;17.43;;;10.90;82.20;;;;;;5085210;28;20453;-62
2023/04/17 02:14:08;;;;;;;23.53;14.97;;;10.90;82.20;;;;;;5082065;28;20472;-63
2023/04/17 02:16:39;;;;;;;24.97;15.57;;;10.90;82.20;;;;;;5067838;28;20470;-63
2023/04/17 02:19:18;;;;;;;21.20;14.37;;;10.90;82.20;;;;;;5083957;28;20449;-63
2023/04/17 02:21:49;;;;;;;21.27;14.77;;;10.90;82.20;;;;;;5080017;28;20456;-62
2023/04/17 02:24:23;;;;;;;23.80;15.33;;;10.90;82.20;;;;;;5084230;28;20469;-62
2023/04/17 02:26:56;;;;;;;26.90;17.07;;;10.90;82.20;;;;;;5070066;28;21187;-63
2023/04/17 02:29:28;;;;;;;23.27;17.00;;;10.90;82.20;;;;;;5080999;28;21022;-63
2023/04/17 02:32:09;;;;;;;21.77;15.00;;;10.90;82.20;;;;;;5084770;28;20835;-63
2023/04/17 02:34:49;;;;;;;25.10;15.77;;;10.90;82.30;;;;;;5075283;28;21034;-62
2023/04/17 02:37:19;;;;;;;25.40;17.83;;;10.90;82.30;;;;;;5064339;28;20445;-62
2023/04/17 02:39:52;;;;;;;23.83;16.40;;;10.90;82.20;;;;;;5065182;28;20463;-63
2023/04/17 02:42:33;;;;;;;28.00;19.00;;;10.90;82.20;;;;;;5067480;28;20461;-63
2023/04/17 02:45:06;;;;;;;24.47;16.53;;;10.90;82.20;;;;;;5063565;28;20468;-63
2023/04/17 02:47:34;;;;;;;26.43;17.37;;;10.90;82.20;;;;;;5070304;28;20519;-63
2023/04/17 02:50:10;;;;;;;33.07;17.30;;;10.90;82.20;;;;;;5070628;28;20467;-62
2023/04/17 02:52:57;;;;;;;25.00;15.70;;;10.90;82.20;;;;;;5064382;28;20871;-63
2023/04/17 02:55:30;;;;;;;23.03;16.40;;;10.90;82.20;;;;;;5065866;28;20461;-62
2023/04/17 02:58:06;;;;;;;22.60;15.70;;;10.90;82.10;;;;;;5068729;28;20522;-63
2023/04/17 03:00:36;;;;;;;24.13;16.13;;;10.90;82.00;;;;;;5069728;28;20516;-62
2023/04/17 03:03:13;;;;;;;24.73;15.90;;;10.80;82.00;;;;;;5085387;28;20453;-62
2023/04/17 03:05:49;;;;;;;21.80;14.67;;;10.80;82.00;;;;;;5064075;28;20526;-62
2023/04/17 03:08:20;;;;;;;23.80;15.40;;;10.80;82.00;;;;;;5082427;28;20522;-62
2023/04/17 03:10:59;;;;;;;23.77;15.87;;;10.70;82.00;;;;;;5061468;28;20500;-62
2023/04/17 03:13:36;;;;;;;27.40;18.17;;;10.70;82.00;;;;;;5079521;28;20453;-63
2023/04/17 03:16:16;;;;;;;25.00;15.70;;;10.70;82.00;;;;;;5079738;28;20465;-62
2023/04/17 03:18:47;;;;;;;29.23;17.80;;;10.70;82.10;;;;;;5083137;28;20488;-62
2023/04/17 03:21:25;;;;;;;25.27;15.83;;;10.70;82.10;;;;;;5082552;28;20517;-62
2023/04/17 03:24:02;;;;;;;26.67;18.40;;;10.70;82.10;;;;;;5077321;28;20518;-62
2023/04/17 03:26:36;;;;;;;28.07;18.13;;;10.70;82.00;;;;;;5064594;28;20972;-63
2023/04/17 03:29:20;;;;;;;29.33;17.90;;;10.70;82.10;;;;;;5083285;28;20453;-63
2023/04/17 03:31:53;;;;;;;27.90;17.10;;;10.70;82.10;;;;;;5080170;28;20489;-62
2023/04/17 03:34:31;;;;;;;27.20;17.67;;;10.70;82.10;;;;;;5084657;28;20460;-62
2023/04/17 03:37:07;;;;;;;28.33;16.13;;;10.70;82.10;;;;;;5085073;28;20543;-63
2023/04/17 03:39:41;;;;;;;25.23;17.77;;;10.70;82.20;;;;;;5077840;28;20521;-62
2023/04/17 03:42:13;;;;;;;24.70;16.23;;;10.70;82.10;;;;;;5061754;28;20870;-62
2023/04/17 03:44:54;;;;;;;27.20;17.23;;;10.70;82.10;;;;;;5085868;28;20451;-62
2023/04/17 03:47:27;;;;;;;28.93;17.73;;;10.70;82.20;;;;;;5085408;28;20459;-63
2023/04/17 03:50:06;;;;;;;26.60;16.70;;;10.60;82.10;;;;;;5085596;28;20505;-63
2023/04/17 03:52:47;;;;;;;29.50;18.57;;;10.60;82.20;;;;;;5080377;28;20492;-62
2023/04/17 03:55:22;;;;;;;26.70;16.90;;;10.60;82.20;;;;;;5078790;28;20540;-61
2023/04/17 03:57:57;;;;;;;25.87;17.33;;;10.60;82.30;;;;;;5084470;28;20461;-62
2023/04/17 04:00:32;;;;;;;25.17;17.87;;;10.60;82.30;;;;;;5065611;28;20463;-62
2023/04/17 04:03:10;;;;;;;25.20;16.60;;;10.70;82.30;;;;;;5078990;28;20557;-62
2023/04/17 04:05:51;;;;;;;23.23;16.13;;;10.70;82.30;;;;;;5080159;28;20462;-62
2023/04/17 04:08:25;;;;;;;24.20;16.87;;;10.60;82.20;;;;;;5064356;28;20469;-63
2023/04/17 04:11:04;;;;;;;24.70;16.50;;;10.60;82.30;;;;;;5062654;28;20491;-62
2023/04/17 04:13:48;;;;;;;24.47;16.93;;;10.60;82.30;;;;;;5081781;28;20465;-62
2023/04/17 04:16:27;;;;;;;26.47;16.60;;;10.60;82.40;;;;;;5084290;28;20478;-62
2023/04/17 04:19:12;;;;;;;25.70;16.97;;;10.60;82.40;;;;;;5083720;28;22004;-62
2023/04/17 04:21:48;;;;;;;24.83;17.33;;;10.60;82.30;;;;;;5066221;28;20473;-62
2023/04/17 04:24:20;;;;;;;27.50;16.60;;;10.60;82.30;;;;;;5068065;28;20548;-63
2023/04/17 04:27:03;;;;;;;27.67;17.13;;;10.60;82.40;;;;;;5079448;28;20465;-62
2023/04/17 04:29:52;;;;;;;25.27;16.93;;;10.60;82.30;;;;;;5088205;28;20452;-62
2023/04/17 04:32:28;;;;;;;25.67;16.80;;;10.60;82.30;;;;;;5069970;28;20500;-62
2023/04/17 04:35:00;;;;;;;24.93;16.50;;;10.60;82.30;;;;;;5087278;28;20471;-62
2023/04/17 04:37:35;;;;;;;27.00;17.20;;;10.60;82.30;;;;;;5085492;28;20489;-63
2023/04/17 04:40:18;;;;;;;23.73;16.10;;;10.60;82.40;;;;;;5081152;28;20957;-62
2023/04/17 04:42:50;;;;;;;27.83;15.73;;;10.60;82.40;;;;;;5086845;28;20472;-62
2023/04/17 04:45:28;;;;;;;24.90;17.00;;;10.60;82.40;;;;;;5087302;28;20455;-62
2023/04/17 04:48:07;;;;;;;24.03;16.43;;;10.60;82.40;;;;;;5079751;28;20491;-62
2023/04/17 04:50:40;;;;;;;29.27;16.23;;;10.70;82.40;;;;;;5082265;28;20483;-62
2023/04/17 04:53:12;;;;;;;24.73;17.03;;;10.70;82.40;;;;;;5080071;28;20481;-62
2023/04/17 04:56:04;;;;;;;23.43;16.70;;;10.70;82.40;;;;;;5064403;28;20462;-61
2023/04/17 04:58:38;;;;;;;26.00;17.47;;;10.70;82.40;;;;;;5067496;28;20466;-62
2023/04/17 05:01:07;;;;;;;26.37;17.63;;;10.70;82.40;;;;;;5080530;28;20493;-62
2023/04/17 05:03:47;;;;;;;26.23;17.20;;;10.70;82.40;;;;;;5065998;28;20470;-62
2023/04/17 05:06:33;;;;;;;28.07;18.07;;;10.70;82.40;;;;;;5084303;28;20497;-61
2023/04/17 05:09:06;;;;;;;30.87;18.33;;;10.70;82.40;;;;;;5078073;28;20531;-62
2023/04/17 05:11:46;;;;;;;33.77;20.40;;;10.70;82.40;;;;;;5081276;28;20468;-62
2023/04/17 05:14:21;;;;;;;23.80;16.30;;;10.70;82.40;;;;;;5080963;28;20508;-62
2023/04/17 05:16:54;;;;;;;27.50;18.43;;;10.70;82.50;;;;;;5066515;28;20469;-62
2023/04/17 05:19:32;;;;;;;28.97;18.67;;;10.70;82.50;;;;;;5065282;28;20456;-62
2023/04/17 05:22:10;;;;;;;33.40;19.83;;;10.70;82.50;;;;;;5080570;28;20465;-62
2023/04/17 05:24:57;;;;;;;37.47;23.50;;;10.70;82.60;;;;;;5081733;28;20473;-62
2023/04/17 05:27:28;;;;;;;30.70;19.13;;;10.70;82.60;;;;;;5066009;28;20469;-61
2023/04/17 05:30:04;;;;;;;30.47;20.20;;;10.80;82.60;;;;;;5064218;28;20464;-62
2023/04/17 05:32:38;;;;;;;30.43;20.60;;;10.80;82.60;;;;;;5065841;28;20526;-62
2023/04/17 05:35:24;;;;;;;29.50;20.00;;;10.80;82.50;;;;;;5081586;28;20491;-62
2023/04/17 05:38:00;;;;;;;26.20;16.47;;;10.80;82.40;;;;;;5065067;28;20544;-62
2023/04/17 05:40:39;;;;;;;24.63;15.03;;;10.80;82.50;;;;;;5079053;28;20469;-62
2023/04/17 05:43:17;;;;;;;21.30;13.33;;;10.80;82.60;;;;;;5080135;28;20461;-62
2023/04/17 05:45:49;;;;;;;20.07;13.47;;;10.90;82.60;;;;;;5067149;28;20476;-62
2023/04/17 05:48:20;;;;;;;20.00;12.80;;;10.90;82.60;;;;;;5082712;28;20471;-62
2023/04/17 05:50:54;;;;;;;18.10;12.47;;;10.90;82.50;;;;;;5070009;28;20488;-62
2023/04/17 05:53:36;;;;;;;20.97;13.17;;;10.90;82.30;;;;;;5081436;28;20456;-62
2023/04/17 05:56:17;;;;;;;18.33;12.57;;;10.90;82.40;;;;;;5081714;28;20461;-63
2023/04/17 05:58:56;;;;;;;20.80;12.87;;;10.90;82.40;;;;;;5069520;28;20480;-63
2023/04/17 06:01:29;;;;;;;17.50;12.13;;;10.90;82.40;;;;;;5082803;28;20471;-63
2023/04/17 06:04:15;;;;;;;20.80;13.10;;;10.80;82.40;;;;;;5063896;28;20529;-63
2023/04/17 06:06:55;;;;;;;22.50;15.40;;;10.80;82.40;;;;;;5081871;28;20453;-63
2023/04/17 06:09:28;;;;;;;28.70;16.83;;;10.80;82.40;;;;;;5059587;28;20537;-63
2023/04/17 06:12:05;;;;;;;32.00;19.70;;;10.70;82.40;;;;;;5065366;28;20533;-63
2023/04/17 06:14:45;;;;;;;17.20;11.50;;;10.70;82.50;;;;;;5066137;28;20946;-63
2023/04/17 06:17:32;;;;;;;22.10;14.70;;;10.70;82.50;;;;;;5084051;28;20464;-63
2023/04/17 06:20:03;;;;;;;26.93;17.93;;;10.70;82.50;;;;;;5068446;28;20487;-63
2023/04/17 06:22:43;;;;;;;22.97;14.53;;;10.70;82.50;;;;;;5080009;28;20940;-64
2023/04/17 06:25:18;;;;;;;14.50;10.90;;;10.70;82.50;;;;;;5083602;28;20462;-63
2023/04/17 06:27:57;;;;;;;17.77;11.27;;;10.70;82.60;;;;;;5085453;28;20448;-64
2023/04/17 06:30:30;;;;;;;17.37;11.47;;;10.70;82.50;;;;;;5086737;28;20472;-63
2023/04/17 06:33:11;;;;;;;26.30;12.80;;;10.80;82.60;;;;;;5079061;28;20528;-63
2023/04/17 06:35:46;;;;;;;16.47;10.20;;;10.80;82.50;;;;;;5084118;28;20473;-64
2023/04/17 06:38:39;;;;;;;15.23;10.43;;;10.80;82.50;;;;;;5064926;28;20551;-64
2023/04/17 06:41:30;;;;;;;16.27;11.17;;;10.80;82.50;;;;;;5082803;28;20566;-63
2023/04/17 06:44:04;;;;;;;13.83;10.80;;;10.80;82.50;;;;;;5061239;28;20506;-63
2023/04/17 06:47:08;;;;;;;13.77;9.80;;;10.80;82.60;;;;;;5080174;28;20457;-64
2023/04/17 06:50:00;;;;;;;15.13;9.90;;;10.80;82.50;;;;;;5082321;28;20455;-63
2023/04/17 06:52:43;;;;;;;13.20;9.20;;;10.80;82.50;;;;;;5080885;28;20508;-64
2023/04/17 06:55:15;;;;;;;14.70;10.37;;;10.80;82.50;;;;;;5083398;28;20465;-63
2023/04/17 06:57:49;;;;;;;15.30;9.70;;;10.80;82.50;;;;;;5080637;28;20588;-63
2023/04/17 07:00:29;;;;;;;13.40;9.50;;;10.90;82.50;;;;;;5081655;28;20472;-63
2023/04/17 07:03:05;;;;;;;14.57;10.40;;;10.90;82.60;;;;;;5080302;28;20457;-63
2023/04/17 07:05:37;;;;;;;15.43;10.47;;;10.90;82.70;;;;;;5078246;28;20569;-63
2023/04/17 07:08:18;;;;;;;16.60;11.37;;;11.00;82.60;;;;;;5075947;28;21276;-63
2023/04/17 07:10:56;;;;;;;15.63;10.10;;;11.10;82.50;;;;;;5080680;28;20517;-63
2023/04/17 07:13:30;;;;;;;16.50;9.40;;;11.10;82.50;;;;;;5081772;28;20491;-64
2023/04/17 07:16:09;;;;;;;14.63;9.93;;;11.10;82.50;;;;;;5078521;28;20462;-64
2023/04/17 07:18:40;;;;;;;12.23;9.73;;;11.20;82.40;;;;;;5081414;28;20469;-63
2023/04/17 07:21:14;;;;;;;14.37;9.43;;;11.20;82.40;;;;;;5083221;28;20562;-63
2023/04/17 07:23:46;;;;;;;13.23;9.47;;;11.20;82.40;;;;;;5081920;28;20970;-63
2023/04/17 07:26:23;;;;;;;12.23;8.43;;;11.30;82.40;;;;;;5083923;28;20478;-63
2023/04/17 07:29:02;;;;;;;13.70;9.47;;;11.40;82.30;;;;;;5082549;28;20481;-64
2023/04/17 07:31:34;;;;;;;12.40;8.60;;;11.40;82.20;;;;;;5081998;28;20479;-63
2023/04/17 07:34:06;;;;;;;12.60;8.67;;;11.40;82.10;;;;;;5077328;28;20459;-63
2023/04/17 07:36:38;;;;;;;15.27;10.47;;;11.40;82.10;;;;;;5081519;28;20546;-63
2023/04/17 07:39:09;;;;;;;14.10;9.80;;;11.40;82.20;;;;;;5077348;28;20461;-64
2023/04/17 07:41:52;;;;;;;12.73;9.23;;;11.50;82.00;;;;;;5081580;28;20451;-63
2023/04/17 07:44:29;;;;;;;15.33;11.33;;;11.50;81.80;;;;;;5077281;28;20812;-63
2023/04/17 07:47:01;;;;;;;18.33;10.10;;;11.50;81.60;;;;;;5082162;28;20457;-63
2023/04/17 07:49:33;;;;;;;14.10;9.87;;;11.50;81.60;;;;;;5082296;28;20459;-63
2023/04/17 07:52:14;;;;;;;42.30;18.47;;;11.60;81.60;;;;;;5080135;28;20492;-63
2023/04/17 07:54:48;;;;;;;23.47;11.93;;;11.60;81.60;;;;;;5090342;28;20477;-63
2023/04/17 07:57:26;;;;;;;13.83;8.80;;;11.70;81.40;;;;;;5085149;28;21029;-64
2023/04/17 07:59:56;;;;;;;14.83;9.17;;;11.70;81.00;;;;;;5085565;28;20471;-63
2023/04/17 08:02:26;;;;;;;13.43;8.50;;;11.60;80.90;;;;;;5068291;28;20482;-63
2023/04/17 08:05:05;;;;;;;16.90;9.03;;;11.70;80.70;;;;;;5083040;28;20472;-63
2023/04/17 08:07:40;;;;;;;12.20;8.03;;;11.70;80.60;;;;;;5086072;28;20945;-63
2023/04/17 08:10:18;;;;;;;14.43;8.83;;;11.70;80.50;;;;;;5082762;28;20458;-63
2023/04/17 08:12:53;;;;;;;19.33;9.60;;;11.60;80.50;;;;;;5086877;28;20955;-63
2023/04/17 08:15:32;;;;;;;14.83;9.97;;;11.60;80.30;;;;;;5085236;28;20506;-63
2023/04/17 08:18:02;;;;;;;23.73;15.60;;;11.60;80.20;;;;;;5089540;28;20854;-63
2023/04/17 08:20:37;;;;;;;27.67;13.90;;;11.60;80.20;;;;;;5085480;28;21105;-63
2023/04/17 08:25:57;;;;;;;14.40;10.20;;;11.60;79.90;;;;;;5086985;28;20498;-63
2023/04/17 08:28:35;;;;;;;14.67;10.10;;;11.70;80.00;;;;;;5089174;28;20462;-63
2023/04/17 08:31:09;;;;;;;15.30;10.97;;;11.70;80.00;;;;;;5085131;28;20474;-63
2023/04/17 08:33:51;;;;;;;15.50;10.37;;;11.80;80.00;;;;;;5082077;28;20485;-64
2023/04/17 08:36:41;;;;;;;18.30;10.97;;;11.80;80.00;;;;;;5088266;28;20573;-63
2023/04/17 08:39:19;;;;;;;12.90;9.00;;;11.90;79.70;;;;;;5086637;28;20462;-64
2023/04/17 08:42:14;;;;;;;13.90;8.20;;;11.90;79.80;;;;;;5083163;28;21150;-63
2023/04/17 08:45:03;;;;;;;11.30;8.20;;;12.00;79.60;;;;;;5086745;28;20477;-64
2023/04/17 08:47:44;;;;;;;14.40;8.47;;;12.00;79.40;;;;;;5087407;28;20513;-63
2023/04/17 08:50:20;;;;;;;13.00;8.37;;;12.00;79.20;;;;;;5088454;28;20873;-63
2023/04/17 08:53:06;;;;;;;15.97;8.60;;;12.00;79.20;;;;;;5081860;28;20476;-63
2023/04/17 08:55:39;;;;;;;11.20;7.53;;;12.10;79.10;;;;;;5085675;28;20458;-63
2023/04/17 08:58:16;;;;;;;11.20;7.70;;;12.10;78.60;;;;;;5086792;28;20841;-63
2023/04/17 09:00:53;;;;;;;11.13;7.53;;;12.20;78.30;;;;;;5086672;28;20482;-63
2023/04/17 09:03:39;;;;;;;11.00;7.53;;;12.10;78.20;;;;;;5086733;28;20550;-63
2023/04/17 09:06:11;;;;;;;12.47;7.97;;;12.10;78.30;;;;;;5081363;28;20452;-63
2023/04/17 09:08:57;;;;;;;14.83;8.80;;;12.20;78.10;;;;;;5082959;28;20473;-63
2023/04/17 09:11:30;;;;;;;15.10;9.73;;;12.20;77.90;;;;;;5071150;28;20520;-64
2023/04/17 09:14:01;;;;;;;17.73;9.37;;;12.30;77.70;;;;;;5084773;28;20483;-63
2023/04/17 09:16:54;;;;;;;12.50;8.33;;;12.30;77.50;;;;;;5083456;28;20474;-63
2023/04/17 09:19:26;;;;;;;13.40;7.60;;;12.30;77.50;;;;;;5083756;28;20454;-63
2023/04/17 09:21:56;;;;;;;12.40;7.27;;;12.30;77.50;;;;;;5082793;28;20574;-63
2023/04/17 09:24:38;;;;;;;12.87;8.37;;;12.20;77.50;;;;;;5085746;28;20443;-63
2023/04/17 09:27:20;;;;;;;12.77;8.03;;;12.30;77.50;;;;;;5085371;28;20543;-64
2023/04/17 09:29:58;;;;;;;11.07;7.33;;;12.30;77.40;;;;;;5084810;28;20451;-64
2023/04/17 09:32:38;;;;;;;12.73;8.20;;;12.40;77.00;;;;;;5082380;28;20522;-63
2023/04/17 09:35:27;;;;;;;12.33;7.97;;;12.40;76.90;;;;;;5083605;28;20908;-63
2023/04/17 09:38:00;;;;;;;21.20;11.80;;;12.40;76.80;;;;;;5084819;28;20511;-64
2023/04/17 09:40:44;;;;;;;15.70;9.50;;;12.50;76.80;;;;;;5083457;28;20810;-63
2023/04/17 09:43:20;;;;;;;9.60;6.50;;;12.40;76.60;;;;;;5083779;28;20493;-64
2023/04/17 09:46:02;;;;;;;13.30;9.50;;;12.50;76.40;;;;;;5081936;28;20943;-64
2023/04/17 09:48:38;;;;;;;11.33;6.80;;;12.50;76.20;;;;;;5086275;28;21129;-64
2023/04/17 09:51:10;;;;;;;11.27;7.23;;;12.50;76.00;;;;;;5082161;28;21087;-64
2023/04/17 09:53:43;;;;;;;11.57;7.10;;;12.50;75.70;;;;;;5079165;28;20609;-64
2023/04/17 09:56:26;;;;;;;9.37;5.70;;;12.50;75.40;;;;;;5081097;28;20462;-64
2023/04/17 09:59:00;;;;;;;9.80;6.30;;;12.50;75.40;;;;;;5089491;28;20480;-64
2023/04/17 10:01:41;;;;;;;9.70;6.13;;;12.50;75.40;;;;;;5063201;28;20556;-63
2023/04/17 10:04:18;;;;;;;10.47;6.70;;;12.50;75.30;;;;;;5085582;28;20456;-64
2023/04/17 10:06:57;;;;;;;11.63;7.30;;;12.50;75.00;;;;;;5084758;28;20578;-64
2023/04/17 10:09:28;;;;;;;10.90;6.83;;;12.60;75.00;;;;;;5082397;28;20486;-65
2023/04/17 10:12:02;;;;;;;12.50;8.20;;;12.60;75.00;;;;;;5085969;28;20478;-64
2023/04/17 10:14:39;;;;;;;9.37;6.87;;;12.70;74.90;;;;;;5080519;28;20565;-65
2023/04/17 10:17:33;;;;;;;11.03;8.00;;;12.70;74.80;;;;;;5083171;28;20491;-64
2023/04/17 10:20:49;;;;;;;10.20;7.00;;;12.80;74.50;;;;;;5079963;28;20510;-64
2023/04/17 10:23:34;;;;;;;10.43;7.37;;;12.80;74.60;;;;;;5046826;28;20523;-65
2023/04/17 10:26:36;;;;;;;11.23;6.20;;;12.80;74.50;;;;;;5088319;28;20465;-64
2023/04/17 10:29:13;;;;;;;12.77;7.97;;;12.80;74.50;;;;;;5081817;28;20455;-65
2023/04/17 10:32:20;;;;;;;12.57;7.60;;;12.80;74.40;;;;;;5085243;28;20843;-64
2023/04/17 10:34:56;;;;;;;9.00;5.67;;;12.80;74.20;;;;;;5082649;28;20489;-65
2023/04/17 10:38:10;;;;;;;11.80;6.73;;;12.80;74.30;;;;;;5080228;28;20465;-62
2023/04/17 10:40:50;;;;;;;13.97;6.87;;;12.80;74.10;;;;;;5085365;28;20457;-62
2023/04/17 10:43:26;;;;;;;16.03;8.93;;;12.80;74.00;;;;;;5079737;28;20510;-65
2023/04/17 10:46:03;;;;;;;10.10;6.33;;;12.80;74.00;;;;;;5064495;28;20515;-62
2023/04/17 10:48:45;;;;;;;11.50;7.00;;;12.80;74.00;;;;;;5067973;28;20465;-64
2023/04/17 10:51:45;;;;;;;9.90;6.63;;;12.80;73.90;;;;;;5083429;28;21198;-64
2023/04/17 10:54:21;;;;;;;9.90;6.07;;;12.80;73.80;;;;;;5087310;28;20491;-62
2023/04/17 10:57:06;;;;;;;12.60;7.67;;;12.70;73.80;;;;;;5080400;28;20522;-65
2023/04/17 10:59:46;;;;;;;9.87;6.70;;;12.70;73.80;;;;;;5054224;28;20453;-65
2023/04/17 11:02:36;;;;;;;11.20;9.20;;;12.70;73.80;;;;;;5079593;28;20840;-64
2023/04/17 11:05:10;;;;;;;10.70;6.77;;;12.70;73.70;;;;;;5078712;28;20471;-65
2023/04/17 11:07:49;;;;;;;8.47;5.80;;;12.60;73.90;;;;;;5081837;28;20906;-64
2023/04/17 11:10:25;;;;;;;8.87;5.80;;;12.50;74.00;;;;;;5079156;28;20462;-64
2023/04/17 11:13:05;;;;;;;7.10;4.70;;;12.60;73.90;;;;;;5079295;28;20470;-64
2023/04/17 11:15:39;;;;;;;7.30;4.63;;;12.50;73.80;;;;;;5082623;28;20457;-64
2023/04/17 11:18:12;;;;;;;7.33;5.10;;;12.50;73.80;;;;;;5081940;28;20498;-64
2023/04/17 11:20:45;;;;;;;5.90;3.90;;;12.40;74.00;;;;;;5082048;28;20558;-64
2023/04/17 11:23:18;;;;;;;6.80;4.37;;;12.40;74.10;;;;;;5077388;28;20457;-64
2023/04/17 11:25:53;;;;;;;6.77;4.87;;;12.40;74.00;;;;;;5084690;28;20458;-65
2023/04/17 11:28:32;;;;;;;6.53;4.67;;;12.40;74.10;;;;;;5084761;28;20549;-63
2023/04/17 11:31:13;;;;;;;7.30;3.87;;;12.30;74.10;;;;;;5077506;28;20482;-65
2023/04/17 11:33:51;;;;;;;5.80;3.43;;;12.30;74.10;;;;;;5079495;28;20811;-64
2023/04/17 11:36:31;;;;;;;8.53;3.93;;;12.30;74.10;;;;;;5082299;28;20979;-64
2023/04/17 11:39:05;;;;;;;6.23;3.60;;;12.30;74.20;;;;;;5082129;28;20549;-64
2023/04/17 11:41:45;;;;;;;6.73;4.30;;;12.30;74.20;;;;;;5078194;28;20443;-64
2023/04/17 11:44:19;;;;;;;8.40;5.80;;;12.30;74.20;;;;;;5085919;28;20465;-64
2023/04/17 11:47:01;;;;;;;6.87;4.37;;;12.30;74.10;;;;;;5082352;28;21069;-65
2023/04/17 11:49:42;;;;;;;13.37;7.90;;;12.30;74.30;;;;;;5084054;28;20473;-64
2023/04/17 11:52:10;;;;;;;7.37;4.80;;;12.30;74.30;;;;;;5080659;28;20492;-64
2023/04/17 11:54:46;;;;;;;6.93;4.57;;;12.30;74.20;;;;;;5083189;28;20980;-64
2023/04/17 11:57:24;;;;;;;6.80;3.63;;;12.40;74.10;;;;;;5079592;28;20485;-64
2023/04/17 12:00:04;;;;;;;5.30;2.77;;;12.40;74.00;;;;;;5079594;28;20464;-65
2023/04/17 12:03:04;;;;;;;5.90;3.93;;;12.30;74.00;;;;;;5019401;28;20477;-64
2023/04/17 12:05:38;;;;;;;5.00;2.90;;;12.20;74.00;;;;;;5023321;28;20452;-64
2023/04/17 12:08:07;;;;;;;6.70;3.20;;;12.20;74.00;;;;;;5022658;28;20548;-64
2023/04/17 12:10:45;;;;;;;5.63;2.70;;;12.20;74.20;;;;;;5006666;28;20532;-64
2023/04/17 12:13:28;;;;;;;4.47;2.40;;;12.20;74.10;;;;;;5022289;28;20954;-64
2023/04/17 12:16:03;;;;;;;4.70;2.50;;;12.20;74.10;;;;;;5021573;28;20564;-64
2023/04/17 12:18:43;;;;;;;4.70;2.60;;;12.20;74.10;;;;;;5025679;28;20475;-64
2023/04/17 12:21:22;;;;;;;7.33;2.60;;;12.30;74.00;;;;;;5022525;28;20805;-64
2023/04/17 12:23:54;;;;;;;6.97;3.80;;;12.30;74.10;;;;;;5024338;28;20470;-64
2023/04/17 12:26:41;;;;;;;5.70;2.80;;;12.30;74.20;;;;;;5022554;28;20461;-64
2023/04/17 12:29:19;;;;;;;12.73;5.93;;;12.30;74.20;;;;;;5021352;28;20505;-63
2023/04/17 12:32:10;;;;;;;6.60;4.17;;;12.30;74.20;;;;;;5021239;28;20593;-64
2023/04/17 12:34:55;;;;;;;5.73;3.33;;;12.30;74.10;;;;;;5071997;28;20487;-65
2023/04/17 12:37:33;;;;;;;8.23;2.87;;;12.40;74.00;;;;;;5082450;28;20472;-65
2023/04/17 12:40:07;;;;;;;5.50;3.00;;;12.30;74.00;;;;;;5085192;28;20480;-64
2023/04/17 12:42:36;;;;;;;4.60;2.63;;;12.30;74.00;;;;;;5084195;28;20521;-65
2023/04/17 12:45:26;;;;;;;5.27;2.37;;;12.30;74.10;;;;;;5087150;28;20832;-64
2023/04/17 12:48:07;;;;;;;5.47;2.70;;;12.40;74.10;;;;;;5086178;28;20538;-63
2023/04/17 12:50:41;;;;;;;7.50;4.30;;;12.40;74.10;;;;;;5084270;28;20530;-64
2023/04/17 12:53:15;;;;;;;6.63;3.77;;;12.40;74.00;;;;;;5085681;28;20459;-65
2023/04/17 12:55:46;;;;;;;5.90;3.60;;;12.40;74.00;;;;;;5084967;28;20481;-64
2023/04/17 12:58:25;;;;;;;6.40;3.83;;;12.40;74.10;;;;;;5082260;28;20449;-64
2023/04/17 13:00:59;;;;;;;5.43;3.27;;;12.40;74.00;;;;;;5086001;28;21139;-64
2023/04/17 13:03:40;;;;;;;6.97;2.90;;;12.50;73.90;;;;;;5084147;28;20447;-63
2023/04/17 13:06:14;;;;;;;5.30;3.27;;;12.40;74.00;;;;;;5084474;28;20461;-63
2023/04/17 13:08:48;;;;;;;5.10;3.00;;;12.40;74.00;;;;;;5085218;28;20451;-63
2023/04/17 13:11:19;;;;;;;5.13;3.00;;;12.40;74.10;;;;;;5084008;28;20456;-65
2023/04/17 13:13:50;;;;;;;5.70;3.10;;;12.40;74.20;;;;;;5081624;28;20476;-63
2023/04/17 13:16:21;;;;;;;4.33;2.37;;;12.40;74.20;;;;;;5085046;28;20483;-62
2023/04/17 13:18:53;;;;;;;5.60;3.17;;;12.40;74.00;;;;;;5084171;28;20792;-63
2023/04/17 13:21:26;;;;;;;4.77;2.73;;;12.40;74.00;;;;;;5083724;28;20514;-63
2023/04/17 13:24:06;;;;;;;6.90;2.37;;;12.40;74.00;;;;;;5084601;28;20537;-63
2023/04/17 13:26:39;;;;;;;4.67;2.27;;;12.50;73.90;;;;;;5085764;28;21009;-63
2023/04/17 13:29:13;;;;;;;11.00;6.33;;;12.40;73.90;;;;;;5083515;28;20552;-63